Time;durP1;ratioP1;P1;durP2;ratioP2;P2;SDS_P1;SDS_P2;PMS_P1;PMS_P2;Temp;Humidity;BMP_temperature;BMP_pressure;BME280_temperature;BME280_humidity;BME280_pressure;Samples;Min_cycle;Max_cycle;Signal;HPM_P1;HPM_P2
2022/10/30 00:01:51;;;;;;;0.93;0.93;;;;;;;15.13;77.71;95939.78;4330169;32;20241;-64
2022/10/30 00:04:16;;;;;;;0.80;0.80;;;;;;;15.22;77.33;95947.81;4323051;32;20216;-64
2022/10/30 00:06:42;;;;;;;2.33;1.83;;;;;;;15.05;77.47;95937.84;4348091;32;20300;-64
2022/10/30 00:09:07;;;;;;;1.13;1.07;;;;;;;14.93;77.68;95938.41;4344396;33;20189;-64
2022/10/30 00:11:32;;;;;;;3.00;1.43;;;;;;;14.87;77.83;95942.28;4330323;32;20220;-64
2022/10/30 00:13:58;;;;;;;10.27;1.70;;;;;;;14.92;77.65;95939.50;4344944;32;20239;-64
2022/10/30 00:16:23;;;;;;;1.33;1.07;;;;;;;14.90;77.16;95931.00;4346296;32;20189;-64
2022/10/30 00:18:48;;;;;;;1.27;1.17;;;;;;;14.82;77.94;95933.59;4333915;32;20284;-64
2022/10/30 00:21:15;;;;;;;1.33;0.93;;;;;;;14.86;77.38;95930.03;4333172;32;20194;-64
2022/10/30 00:23:48;;;;;;;1.07;1.07;;;;;;;14.85;77.26;95928.44;4333361;32;20253;-64
2022/10/30 00:26:14;;;;;;;1.10;1.03;;;;;;;14.87;77.45;95931.59;4343360;32;20199;-64
2022/10/30 00:28:40;;;;;;;11.63;2.50;;;;;;;14.85;76.54;95930.34;4347114;32;20198;-64
2022/10/30 00:31:06;;;;;;;0.70;0.70;;;;;;;14.82;76.38;95923.72;4341150;32;20209;-64
2022/10/30 00:33:31;;;;;;;2.23;1.57;;;;;;;14.79;76.44;95924.31;4345108;32;20239;-64
2022/10/30 00:35:57;;;;;;;0.83;0.83;;;;;;;14.92;75.88;95928.03;4335278;32;20211;-64
2022/10/30 00:38:23;;;;;;;0.60;0.60;;;;;;;14.87;75.69;95926.25;4345467;32;20185;-64
2022/10/30 00:40:48;;;;;;;1.20;1.20;;;;;;;14.82;76.26;95931.72;4344149;32;20341;-61
2022/10/30 00:43:35;;;;;;;3.40;1.80;;;;;;;14.72;77.06;95932.00;4333028;32;20208;-61
2022/10/30 00:46:19;;;;;;;1.37;1.27;;;;;;;14.82;77.43;95933.59;4332897;32;20206;-62
2022/10/30 00:48:50;;;;;;;1.33;1.23;;;;;;;14.76;76.71;95935.59;4344867;32;20266;-61
2022/10/30 00:51:16;;;;;;;1.10;1.10;;;;;;;14.76;76.96;95935.59;4341762;32;20186;-61
2022/10/30 00:53:42;;;;;;;1.73;1.63;;;;;;;14.67;77.07;95940.91;4333069;32;20190;-61
2022/10/30 00:56:09;;;;;;;1.80;1.50;;;;;;;14.62;78.53;95926.88;4339519;32;20182;-62
2022/10/30 00:58:41;;;;;;;1.77;1.67;;;;;;;14.57;78.31;95925.09;4328648;32;20185;-61
2022/10/30 01:01:16;;;;;;;8.40;1.87;;;;;;;14.61;77.99;95922.63;4338696;32;20251;-62
2022/10/30 01:03:41;;;;;;;1.43;1.27;;;;;;;14.56;78.21;95922.75;4332936;32;20195;-61
2022/10/30 01:06:10;;;;;;;1.40;1.30;;;;;;;14.55;78.65;95929.97;4332867;32;20197;-61
2022/10/30 01:08:37;;;;;;;3.90;1.10;;;;;;;14.55;78.62;95929.19;4332469;32;20208;-61
2022/10/30 01:11:04;;;;;;;1.63;1.37;;;;;;;14.59;78.34;95922.94;4346002;32;20200;-62
2022/10/30 01:13:31;;;;;;;9.47;1.80;;;;;;;14.62;77.92;95922.31;4332718;32;20216;-65
2022/10/30 01:16:11;;;;;;;1.00;1.00;;;;;;;14.59;78.40;95920.25;4345747;32;20208;-64
2022/10/30 01:18:54;;;;;;;1.53;1.43;;;;;;;14.63;77.62;95917.78;4336513;32;20220;-64
2022/10/30 01:21:32;;;;;;;5.63;2.10;;;;;;;14.72;77.69;95921.31;4329336;32;20209;-64
2022/10/30 01:24:15;;;;;;;1.00;1.00;;;;;;;14.75;77.30;95924.16;4346185;32;20260;-64
2022/10/30 01:27:12;;;;;;;10.70;1.50;;;;;;;14.65;77.78;95927.06;4341997;32;20190;-64
2022/10/30 01:30:15;;;;;;;1.77;1.67;;;;;;;14.72;78.42;95926.66;4335989;32;20199;-64
2022/10/30 01:32:52;;;;;;;2.83;1.70;;;;;;;14.59;78.69;95930.94;4343682;32;20188;-64
2022/10/30 01:35:31;;;;;;;1.00;1.00;;;;;;;14.59;78.46;95930.16;4346148;32;20185;-64
2022/10/30 01:38:06;;;;;;;3.20;1.03;;;;;;;14.58;79.25;95923.22;4338870;32;20261;-64
2022/10/30 01:40:31;;;;;;;1.00;1.00;;;;;;;14.59;78.22;95930.94;4344681;32;20245;-64
2022/10/30 01:42:58;;;;;;;2.90;0.87;;;;;;;14.46;78.67;95929.13;4342455;32;20185;-64
2022/10/30 01:45:42;;;;;;;1.27;1.27;;;;;;;14.43;79.23;95927.06;4345702;32;20186;-64
2022/10/30 01:48:26;;;;;;;2.17;1.97;;;;;;;14.38;79.88;95927.94;4332345;32;20319;-64
2022/10/30 01:50:54;;;;;;;2.50;1.77;;;;;;;14.41;80.12;95932.69;4332428;32;20190;-64
2022/10/30 01:53:32;;;;;;;2.30;1.67;;;;;;;14.43;80.23;95933.19;4322906;33;20268;-64
2022/10/30 01:56:25;;;;;;;3.93;1.63;;;;;;;14.25;81.68;95936.78;4321685;32;20188;-64
2022/10/30 01:58:59;;;;;;;1.53;1.27;;;;;;;14.33;81.70;95930.72;4342678;32;20189;-64
2022/10/30 02:01:27;;;;;;;1.37;1.27;;;;;;;14.46;80.97;95937.13;4345786;32;20223;-64
2022/10/30 02:03:52;;;;;;;1.87;1.70;;;;;;;14.34;81.26;95934.94;4331406;32;20211;-64
2022/10/30 02:06:18;;;;;;;1.27;1.17;;;;;;;14.46;80.99;95934.47;4331603;32;20189;-64
2022/10/30 02:08:43;;;;;;;5.07;2.70;;;;;;;14.50;80.65;95927.44;4344910;32;20247;-64
2022/10/30 02:11:09;;;;;;;3.37;1.83;;;;;;;14.29;81.66;95936.97;4349703;32;20177;-64
2022/10/30 02:13:36;;;;;;;3.13;1.23;;;;;;;14.43;80.96;95938.53;4328809;32;20197;-64
2022/10/30 02:16:02;;;;;;;3.33;1.57;;;;;;;14.42;80.90;95933.47;4353287;32;20190;-64
2022/10/30 02:18:28;;;;;;;1.90;1.13;;;;;;;14.37;80.76;95934.34;4352739;32;20197;-64
2022/10/30 02:20:54;;;;;;;6.77;1.70;;;;;;;14.28;81.30;95930.84;4326601;33;20258;-64
2022/10/30 02:23:21;;;;;;;2.57;1.50;;;;;;;14.18;81.95;95931.03;4335830;32;20268;-64
2022/10/30 02:25:47;;;;;;;5.57;1.20;;;;;;;14.21;81.94;95927.00;4335692;32;20264;-64
2022/10/30 02:28:12;;;;;;;5.60;1.93;;;;;;;14.17;81.81;95924.13;4350303;32;20203;-64
2022/10/30 02:30:39;;;;;;;10.13;2.20;;;;;;;13.95;82.96;95921.41;4354704;32;20266;-64
2022/10/30 02:33:05;;;;;;;2.17;2.00;;;;;;;14.02;83.09;95922.59;4331017;32;20193;-64
2022/10/30 02:35:30;;;;;;;6.70;1.70;;;;;;;14.03;83.40;95926.84;4330609;32;20245;-65
2022/10/30 02:37:55;;;;;;;0.97;0.97;;;;;;;14.17;82.32;95928.69;4351068;32;20248;-62
2022/10/30 02:40:21;;;;;;;7.43;1.70;;;;;;;14.10;82.01;95918.44;4357891;32;20189;-62
2022/10/30 02:42:55;;;;;;;2.53;1.30;;;;;;;14.14;82.50;95924.72;4334021;32;20193;-62
2022/10/30 02:45:21;;;;;;;2.20;2.00;;;;;;;14.17;82.17;95923.34;4342833;32;20283;-62
2022/10/30 02:47:46;;;;;;;1.00;1.00;;;;;;;14.16;82.26;95922.56;4328783;32;20224;-62
2022/10/30 02:50:11;;;;;;;0.80;0.80;;;;;;;14.11;82.75;95922.69;4353421;32;20185;-62
2022/10/30 02:52:37;;;;;;;1.30;1.20;;;;;;;14.18;82.43;95925.72;4342642;32;20250;-62
2022/10/30 02:55:03;;;;;;;4.73;2.17;;;;;;;14.07;83.20;95919.81;4351677;32;20231;-63
2022/10/30 02:57:28;;;;;;;1.17;1.17;;;;;;;14.11;83.07;95917.34;4350338;32;20204;-62
2022/10/30 02:59:53;;;;;;;4.87;2.03;;;;;;;14.15;82.69;95920.97;4343703;32;20208;-62
2022/10/30 03:02:19;;;;;;;1.93;1.80;;;;;;;14.00;83.51;95919.44;4347981;32;23313;-62
2022/10/30 03:04:44;;;;;;;1.80;1.50;;;;;;;13.98;83.77;95921.59;4345039;32;20216;-62
2022/10/30 03:07:09;;;;;;;3.40;1.23;;;;;;;13.90;83.88;95918.88;4334559;32;20257;-62
2022/10/30 03:09:35;;;;;;;1.17;1.17;;;;;;;13.96;83.47;95921.13;4345562;32;20193;-62
2022/10/30 03:12:00;;;;;;;1.90;1.80;;;;;;;13.96;83.77;95917.66;4327018;33;20258;-63
2022/10/30 03:14:26;;;;;;;1.73;1.60;;;;;;;13.81;84.35;95923.31;4331844;32;20212;-62
2022/10/30 03:16:51;;;;;;;2.87;1.67;;;;;;;13.84;84.80;95930.72;4347282;32;20200;-62
2022/10/30 03:19:17;;;;;;;7.87;1.73;;;;;;;13.83;84.45;95921.94;4354636;32;20185;-62
2022/10/30 03:21:43;;;;;;;2.23;2.03;;;;;;;13.92;84.34;95938.03;4342657;32;20260;-62
2022/10/30 03:24:08;;;;;;;2.27;2.10;;;;;;;13.77;85.10;95926.59;4329532;32;20191;-63
2022/10/30 03:26:33;;;;;;;4.50;2.23;;;;;;;13.67;85.51;95926.81;4355070;32;20251;-63
2022/10/30 03:28:59;;;;;;;0.60;0.60;;;;;;;13.73;85.30;95919.47;4346402;32;20208;-62
2022/10/30 03:31:24;;;;;;;1.70;1.60;;;;;;;13.47;86.46;95923.75;4349299;32;20189;-62
2022/10/30 03:33:50;;;;;;;4.93;1.50;;;;;;;13.48;86.15;95926.13;4337663;32;20277;-62
2022/10/30 03:36:15;;;;;;;3.33;2.23;;;;;;;13.45;86.26;95921.38;4356777;32;20230;-62
2022/10/30 03:38:40;;;;;;;1.93;1.60;;;;;;;13.59;85.35;95918.69;4331380;32;20193;-62
2022/10/30 03:41:06;;;;;;;1.67;1.57;;;;;;;13.65;84.70;95920.19;4332761;32;20189;-62
2022/10/30 03:43:32;;;;;;;19.33;2.70;;;;;;;13.65;84.06;95918.31;4338699;32;20205;-63
2022/10/30 03:45:57;;;;;;;1.50;1.40;;;;;;;13.73;83.82;95911.47;4332717;32;20190;-62
2022/10/30 03:48:25;;;;;;;8.60;1.90;;;;;;;13.55;84.63;95905.16;4334553;32;20189;-62
2022/10/30 03:50:52;;;;;;;1.23;1.23;;;;;;;13.43;85.02;95909.44;4342485;32;20270;-62
2022/10/30 03:53:17;;;;;;;0.80;0.80;;;;;;;13.51;84.50;95906.84;4323681;33;20186;-62
2022/10/30 03:55:42;;;;;;;4.80;2.63;;;;;;;13.59;83.97;95911.50;4339112;32;20208;-62
2022/10/30 03:58:08;;;;;;;1.67;1.47;;;;;;;13.55;84.33;95902.50;4330255;32;20240;-62
2022/10/30 04:00:34;;;;;;;3.03;1.80;;;;;;;13.55;83.85;95909.72;4338268;32;20228;-63
2022/10/30 04:03:00;;;;;;;7.47;1.63;;;;;;;13.46;84.44;95912.28;4345915;32;20204;-62
2022/10/30 04:05:27;;;;;;;3.40;2.27;;;;;;;13.63;83.91;95917.81;4347124;32;20234;-62
2022/10/30 04:08:01;;;;;;;1.20;1.10;;;;;;;13.70;83.30;95918.22;4348895;32;20196;-62
2022/10/30 04:10:26;;;;;;;1.13;1.10;;;;;;;13.61;83.68;95911.19;4332558;32;20189;-62
2022/10/30 04:12:58;;;;;;;1.63;1.53;;;;;;;13.55;85.18;95918.50;4351432;32;20189;-62
2022/10/30 04:15:23;;;;;;;1.13;1.10;;;;;;;13.56;85.50;95920.06;4344495;32;20189;-62
2022/10/30 04:17:50;;;;;;;1.80;1.70;;;;;;;13.62;84.10;95921.56;4351922;32;20267;-62
2022/10/30 04:20:16;;;;;;;6.70;2.27;;;;;;;13.63;84.13;95917.81;4353985;32;20193;-62
2022/10/30 04:22:41;;;;;;;7.33;1.77;;;;;;;13.54;84.93;95927.59;4350719;32;20189;-62
2022/10/30 04:25:07;;;;;;;21.80;1.97;;;;;;;13.72;83.67;95916.00;4329902;33;20195;-62
2022/10/30 04:27:39;;;;;;;1.40;1.30;;;;;;;13.64;84.29;95914.06;4348287;32;20201;-62
2022/10/30 04:30:05;;;;;;;1.67;1.60;;;;;;;13.77;83.22;95915.13;4328612;33;20254;-62
2022/10/30 04:32:30;;;;;;;13.23;2.10;;;;;;;13.80;82.57;95921.75;4351360;32;20210;-62
2022/10/30 04:34:55;;;;;;;1.97;1.87;;;;;;;13.82;82.62;95920.34;4344816;33;20220;-62
2022/10/30 04:37:21;;;;;;;1.13;1.13;;;;;;;13.84;82.26;95920.06;4338632;32;20190;-62
2022/10/30 04:39:47;;;;;;;3.43;1.67;;;;;;;13.84;82.00;95912.06;4335120;32;20208;-62
2022/10/30 04:42:12;;;;;;;5.13;1.90;;;;;;;13.90;81.68;95913.53;4329848;33;20185;-62
2022/10/30 04:44:38;;;;;;;0.97;0.97;;;;;;;13.80;82.06;95916.41;4343772;33;20193;-62
2022/10/30 04:47:03;;;;;;;2.20;1.50;;;;;;;13.71;82.55;95921.66;4344222;33;20228;-62
2022/10/30 04:49:28;;;;;;;4.13;1.43;;;;;;;13.65;82.08;95912.97;4355077;32;20250;-62
2022/10/30 04:51:54;;;;;;;1.03;1.03;;;;;;;13.68;82.03;95920.38;4346873;32;20185;-62
2022/10/30 04:54:20;;;;;;;1.70;1.33;;;;;;;13.66;81.93;95922.56;4351442;32;20186;-62
2022/10/30 04:56:46;;;;;;;1.60;1.50;;;;;;;13.54;82.32;95911.59;4331358;32;20186;-62
2022/10/30 04:59:11;;;;;;;2.03;1.33;;;;;;;13.60;82.83;95917.63;4337639;32;20206;-62
2022/10/30 05:01:37;;;;;;;1.17;1.17;;;;;;;13.56;83.33;95912.09;4355307;32;20189;-62
2022/10/30 05:04:02;;;;;;;1.37;1.23;;;;;;;13.48;83.09;95904.00;4322787;32;20236;-62
2022/10/30 05:06:29;;;;;;;2.10;1.70;;;;;;;13.49;82.88;95903.72;4348597;32;20289;-62
2022/10/30 05:08:56;;;;;;;1.07;1.07;;;;;;;13.42;83.01;95905.97;4337458;32;20189;-62
2022/10/30 05:11:22;;;;;;;1.97;1.83;;;;;;;13.36;83.07;95901.81;4330779;32;20229;-62
2022/10/30 05:13:47;;;;;;;14.97;1.77;;;;;;;13.28;83.34;95910.53;4343478;32;20213;-62
2022/10/30 05:16:12;;;;;;;1.60;1.50;;;;;;;13.27;83.11;95904.41;4355807;32;20190;-62
2022/10/30 05:18:38;;;;;;;2.30;1.47;;;;;;;13.07;83.70;95902.09;4339302;32;20200;-62
2022/10/30 05:21:03;;;;;;;8.50;1.80;;;;;;;12.87;84.37;95902.44;4333330;32;20339;-62
2022/10/30 05:23:29;;;;;;;2.87;1.27;;;;;;;12.81;84.66;95899.06;4345357;32;20198;-62
2022/10/30 05:25:54;;;;;;;0.87;0.87;;;;;;;12.68;84.44;95899.81;4359651;32;20247;-62
2022/10/30 05:28:19;;;;;;;1.07;0.97;;;;;;;12.60;84.77;95889.84;4347482;32;20205;-62
2022/10/30 05:30:45;;;;;;;6.53;0.57;;;;;;;12.56;84.85;95896.81;4331158;32;20205;-62
2022/10/30 05:33:11;;;;;;;3.13;1.80;;;;;;;12.49;85.26;95891.06;4349542;32;20189;-62
2022/10/30 05:35:37;;;;;;;1.60;1.47;;;;;;;12.52;85.19;95895.81;4331922;32;20185;-62
2022/10/30 05:38:05;;;;;;;4.50;1.40;;;;;;;12.75;84.52;95889.59;4346038;32;20193;-62
2022/10/30 05:40:32;;;;;;;2.87;1.70;;;;;;;12.82;83.69;95884.69;4334380;32;20185;-62
2022/10/30 05:42:58;;;;;;;1.67;1.17;;;;;;;12.96;83.08;95898.81;4353083;32;20193;-62
2022/10/30 05:45:23;;;;;;;2.37;1.77;;;;;;;12.92;82.86;95894.34;4337338;32;20189;-62
2022/10/30 05:48:00;;;;;;;1.70;1.40;;;;;;;12.67;83.12;95892.94;4344165;32;20181;-62
2022/10/30 05:50:26;;;;;;;1.47;1.23;;;;;;;12.70;83.10;95894.97;4351506;32;20200;-62
2022/10/30 05:52:59;;;;;;;0.80;0.80;;;;;;;12.63;83.44;95898.03;4329735;32;20257;-62
2022/10/30 05:55:25;;;;;;;1.23;1.13;;;;;;;12.87;82.61;95892.59;4355200;32;20178;-62
2022/10/30 05:57:57;;;;;;;6.37;1.47;;;;;;;12.78;82.37;95899.66;4346753;32;20240;-62
2022/10/30 06:00:23;;;;;;;1.53;1.43;;;;;;;12.86;81.72;95896.31;4338837;32;20193;-62
2022/10/30 06:02:48;;;;;;;4.00;1.80;;;;;;;12.87;81.87;95892.59;4331465;32;20232;-62
2022/10/30 06:05:14;;;;;;;1.10;0.83;;;;;;;13.03;81.00;95896.56;4346288;32;20224;-62
2022/10/30 06:07:39;;;;;;;1.50;1.40;;;;;;;13.00;81.31;95886.47;4330234;32;20204;-62
2022/10/30 06:10:05;;;;;;;1.83;1.73;;;;;;;12.88;81.69;95883.50;4331913;32;20189;-62
2022/10/30 06:12:30;;;;;;;2.43;1.23;;;;;;;12.93;81.45;95875.41;4344174;32;20200;-63
2022/10/30 06:14:55;;;;;;;2.53;1.57;;;;;;;12.87;81.81;95881.16;4332168;32;20215;-63
2022/10/30 06:17:21;;;;;;;0.70;0.70;;;;;;;12.86;81.03;95885.69;4348306;32;20260;-63
2022/10/30 06:19:46;;;;;;;0.80;0.80;;;;;;;13.00;80.35;95881.16;4333135;32;20228;-63
2022/10/30 06:22:11;;;;;;;1.07;1.07;;;;;;;13.12;80.43;95887.84;4333013;32;20181;-63
2022/10/30 06:24:37;;;;;;;2.30;0.87;;;;;;;13.05;79.69;95883.72;4346762;32;20182;-63
2022/10/30 06:27:02;;;;;;;0.77;0.77;;;;;;;13.14;79.63;95885.69;4344234;32;20223;-63
2022/10/30 06:29:27;;;;;;;0.70;0.70;;;;;;;13.09;79.66;95890.03;4343113;32;20194;-63
2022/10/30 06:31:53;;;;;;;0.73;0.73;;;;;;;13.10;79.08;95890.81;4331036;32;20197;-63
2022/10/30 06:34:18;;;;;;;0.70;0.70;;;;;;;13.13;79.33;95889.44;4335043;32;20185;-63
2022/10/30 06:36:43;;;;;;;0.80;0.80;;;;;;;13.21;78.63;95888.78;4338740;32;20300;-63
2022/10/30 06:39:09;;;;;;;1.50;1.27;;;;;;;13.18;78.86;95894.72;4349313;32;20236;-63
2022/10/30 06:41:34;;;;;;;3.03;1.13;;;;;;;13.26;79.70;95883.38;4354631;32;20232;-63
2022/10/30 06:43:59;;;;;;;1.03;1.03;;;;;;;13.24;80.21;95889.00;4356700;32;20213;-63
2022/10/30 06:46:25;;;;;;;5.23;1.83;;;;;;;13.30;78.99;95887.78;4360609;32;20207;-63
2022/10/30 06:48:50;;;;;;;2.63;1.53;;;;;;;13.28;78.92;95876.66;4356987;32;20236;-63
2022/10/30 06:51:16;;;;;;;0.63;0.63;;;;;;;13.42;78.56;95879.31;4346594;32;20189;-63
2022/10/30 06:53:41;;;;;;;2.33;1.23;;;;;;;13.39;78.27;95882.56;4339284;32;20197;-63
2022/10/30 06:56:08;;;;;;;3.67;2.00;;;;;;;13.35;78.54;95876.25;4349581;32;20197;-63
2022/10/30 06:58:37;;;;;;;1.43;1.30;;;;;;;13.28;78.96;95886.53;4345020;32;20232;-63
2022/10/30 07:01:06;;;;;;;0.80;0.80;;;;;;;13.46;78.57;95882.19;4349757;32;20186;-62
2022/10/30 07:03:32;;;;;;;1.50;1.40;;;;;;;13.47;78.74;95887.22;4340580;32;20239;-63
2022/10/30 07:05:57;;;;;;;2.20;1.60;;;;;;;13.58;78.60;95891.25;4350856;32;20216;-63
2022/10/30 07:08:23;;;;;;;1.23;1.13;;;;;;;13.66;78.30;95893.22;4333340;32;20185;-63
2022/10/30 07:10:48;;;;;;;0.80;0.80;;;;;;;13.53;79.60;95895.88;4331441;32;20194;-63
2022/10/30 07:13:14;;;;;;;1.97;1.70;;;;;;;13.56;80.12;95890.75;4344574;32;20228;-63
2022/10/30 07:15:39;;;;;;;8.43;1.17;;;;;;;13.62;79.38;95896.78;4331369;32;20199;-63
2022/10/30 07:18:05;;;;;;;7.10;1.50;;;;;;;13.73;79.60;95898.13;4344785;32;20232;-63
2022/10/30 07:20:33;;;;;;;2.13;1.30;;;;;;;13.66;81.49;95898.56;4334284;32;20193;-63
2022/10/30 07:23:00;;;;;;;0.77;0.77;;;;;;;13.68;81.80;95896.38;4340917;32;20189;-63
2022/10/30 07:25:25;;;;;;;1.93;1.83;;;;;;;13.67;81.71;95896.69;4344254;32;20185;-63
2022/10/30 07:27:52;;;;;;;1.97;1.67;;;;;;;13.73;81.60;95901.59;4348857;32;20203;-63
2022/10/30 07:30:20;;;;;;;13.67;1.57;;;;;;;13.76;81.75;95903.66;4350048;32;20219;-63
2022/10/30 07:32:55;;;;;;;1.27;1.23;;;;;;;13.82;82.28;95903.56;4356660;32;20255;-63
2022/10/30 07:35:20;;;;;;;0.83;0.83;;;;;;;13.91;82.08;95902.56;4325466;32;20200;-63
2022/10/30 07:37:46;;;;;;;2.33;1.33;;;;;;;13.94;82.11;95909.16;4342859;32;20220;-63
2022/10/30 07:40:11;;;;;;;1.30;1.20;;;;;;;14.01;82.30;95906.88;4344385;32;20196;-63
2022/10/30 07:42:36;;;;;;;1.53;1.43;;;;;;;14.08;82.33;95908.06;4330917;32;20198;-63
2022/10/30 07:45:02;;;;;;;0.60;0.60;;;;;;;14.12;82.30;95908.25;4337891;32;20190;-63
2022/10/30 07:47:27;;;;;;;3.00;1.40;;;;;;;14.18;81.68;95904.38;4335947;32;20201;-63
2022/10/30 07:49:52;;;;;;;3.60;1.73;;;;;;;14.27;80.93;95899.91;4317793;32;20204;-63
2022/10/30 07:52:18;;;;;;;1.37;1.33;;;;;;;14.34;80.62;95908.25;4330392;32;20200;-63
2022/10/30 07:54:43;;;;;;;5.40;1.37;;;;;;;14.40;80.23;95907.09;4327082;32;20193;-63
2022/10/30 07:57:08;;;;;;;1.77;1.13;;;;;;;14.47;79.71;95913.91;4328883;32;20224;-63
2022/10/30 07:59:34;;;;;;;2.73;1.63;;;;;;;14.53;79.13;95916.16;4342300;32;20241;-63
2022/10/30 08:01:59;;;;;;;2.57;0.93;;;;;;;14.58;79.22;95912.53;4345068;32;20240;-63
2022/10/30 08:04:25;;;;;;;3.00;1.53;;;;;;;14.63;77.50;95925.78;4358330;32;20207;-63
2022/10/30 08:06:50;;;;;;;1.33;1.27;;;;;;;14.69;76.48;95919.25;4344647;32;20198;-63
2022/10/30 08:09:15;;;;;;;1.23;0.97;;;;;;;14.76;74.43;95920.38;4335778;32;20243;-63
2022/10/30 08:11:41;;;;;;;3.40;1.47;;;;;;;14.83;75.64;95911.94;4349055;32;20194;-63
2022/10/30 08:14:06;;;;;;;2.13;1.23;;;;;;;14.84;75.33;95921.53;4355866;32;20211;-63
2022/10/30 08:16:31;;;;;;;0.87;0.83;;;;;;;14.88;74.73;95922.50;4359618;32;20211;-63
2022/10/30 08:18:57;;;;;;;2.53;1.10;;;;;;;14.92;73.99;95923.47;4340289;33;20229;-63
2022/10/30 08:21:22;;;;;;;1.70;0.87;;;;;;;15.01;74.05;95921.63;4328240;33;20320;-63
2022/10/30 08:23:47;;;;;;;5.83;0.77;;;;;;;15.06;73.13;95929.53;4335210;32;20189;-63
2022/10/30 08:26:13;;;;;;;1.90;1.03;;;;;;;15.11;73.10;95920.59;4358646;32;20193;-63
2022/10/30 08:28:38;;;;;;;4.37;1.67;;;;;;;15.16;72.15;95917.00;4356608;32;20307;-63
2022/10/30 08:31:04;;;;;;;1.37;1.27;;;;;;;15.21;72.43;95925.66;4350075;32;20217;-63
2022/10/30 08:33:30;;;;;;;2.83;1.20;;;;;;;15.24;73.44;95918.91;4332245;33;20248;-63
2022/10/30 08:35:57;;;;;;;1.17;1.10;;;;;;;15.29;72.86;95911.56;4354583;32;20279;-63
2022/10/30 08:38:24;;;;;;;4.00;1.90;;;;;;;15.33;73.11;95909.06;4354318;32;20307;-63
2022/10/30 08:40:49;;;;;;;1.07;1.07;;;;;;;15.42;72.18;95905.31;4336237;32;20197;-63
2022/10/30 08:43:15;;;;;;;0.83;0.83;;;;;;;15.45;72.20;95898.56;4343811;32;20303;-63
2022/10/30 08:45:40;;;;;;;10.17;1.77;;;;;;;15.57;70.87;95906.03;4332220;32;20205;-63
2022/10/30 08:48:09;;;;;;;2.20;1.70;;;;;;;15.57;72.33;95909.50;4346744;32;20253;-63
2022/10/30 08:50:34;;;;;;;1.10;1.00;;;;;;;15.61;71.26;95918.44;4339660;32;20189;-63
2022/10/30 08:53:05;;;;;;;3.20;1.33;;;;;;;15.70;71.34;95911.25;4344214;32;20196;-63
2022/10/30 08:55:31;;;;;;;2.03;1.93;;;;;;;15.73;70.68;95912.53;4342389;32;20261;-63
2022/10/30 08:57:57;;;;;;;10.70;1.10;;;;;;;15.79;70.38;95904.00;4332428;32;20236;-63
2022/10/30 09:00:23;;;;;;;15.03;2.10;;;;;;;15.89;69.52;95907.50;4327543;32;20269;-63
2022/10/30 09:02:48;;;;;;;2.37;1.53;;;;;;;16.00;68.60;95906.13;4332855;32;20248;-63
2022/10/30 09:05:14;;;;;;;2.10;1.13;;;;;;;16.03;68.28;95906.25;4347116;32;20249;-63
2022/10/30 09:07:39;;;;;;;1.80;1.17;;;;;;;16.12;68.18;95901.72;4341828;32;20208;-63
2022/10/30 09:10:05;;;;;;;0.73;0.73;;;;;;;16.13;67.79;95902.50;4336690;32;20225;-63
2022/10/30 09:12:30;;;;;;;5.63;1.33;;;;;;;16.17;67.86;95898.09;4362962;32;20193;-63
2022/10/30 09:14:56;;;;;;;2.23;1.40;;;;;;;16.22;68.08;95894.47;4347053;32;20194;-63
2022/10/30 09:17:21;;;;;;;0.60;0.60;;;;;;;16.25;67.51;95893.84;4357725;32;20199;-63
2022/10/30 09:19:47;;;;;;;1.67;1.30;;;;;;;16.36;66.58;95900.47;4335348;32;20193;-63
2022/10/30 09:22:12;;;;;;;0.93;0.93;;;;;;;16.35;67.22;95898.91;4341296;32;20209;-63
2022/10/30 09:24:38;;;;;;;7.87;1.20;;;;;;;16.37;66.56;95892.13;4345894;32;20185;-63
2022/10/30 09:27:04;;;;;;;0.77;0.77;;;;;;;16.44;65.84;95892.41;4338394;32;20189;-63
2022/10/30 09:29:30;;;;;;;1.00;1.00;;;;;;;16.59;64.25;95895.72;4343873;32;20203;-63
2022/10/30 09:31:56;;;;;;;1.87;1.30;;;;;;;16.68;63.92;95901.88;4350942;32;20200;-63
2022/10/30 09:34:21;;;;;;;1.40;0.77;;;;;;;16.80;62.76;95899.34;4344357;32;20271;-63
2022/10/30 09:36:48;;;;;;;0.40;0.40;;;;;;;17.01;61.76;95897.56;4339054;32;20215;-63
2022/10/30 09:39:14;;;;;;;2.63;1.37;;;;;;;17.07;61.66;95901.63;4346027;32;20197;-63
2022/10/30 09:42:04;;;;;;;1.93;0.97;;;;;;;17.21;61.28;95903.34;4355172;32;20189;-63
2022/10/30 09:44:36;;;;;;;1.37;1.37;;;;;;;17.23;62.33;95901.13;4341751;32;20189;-63
2022/10/30 09:47:20;;;;;;;0.57;0.57;;;;;;;17.14;62.26;95899.25;4341426;32;20198;-63
2022/10/30 09:50:10;;;;;;;1.10;1.10;;;;;;;17.25;61.54;95897.00;4333872;32;20285;-63
2022/10/30 09:53:03;;;;;;;4.33;3.80;;;;;;;17.30;61.63;95902.19;4344445;32;20228;-63
2022/10/30 09:55:53;;;;;;;0.93;0.93;;;;;;;17.29;62.65;95894.47;4345861;32;20216;-63
2022/10/30 09:58:33;;;;;;;0.87;0.83;;;;;;;17.32;61.91;95893.84;4331735;32;20197;-63
2022/10/30 10:01:09;;;;;;;22.77;1.47;;;;;;;17.43;60.88;95900.44;4351276;32;20253;-63
2022/10/30 10:04:01;;;;;;;0.63;0.50;;;;;;;17.53;60.20;95892.00;4348028;32;20215;-63
2022/10/30 10:06:27;;;;;;;2.20;2.00;;;;;;;17.57;60.34;95897.50;4345362;32;20198;-63
2022/10/30 10:09:00;;;;;;;1.53;1.43;;;;;;;17.61;59.89;95901.91;4336618;32;20318;-63
2022/10/30 10:11:32;;;;;;;2.10;1.67;;;;;;;17.65;59.66;95892.16;4339186;32;20192;-63
2022/10/30 10:14:07;;;;;;;1.63;1.23;;;;;;;17.77;59.29;95891.44;4350443;32;20185;-63
2022/10/30 10:16:37;;;;;;;2.50;1.63;;;;;;;17.78;59.86;95898.38;4347894;32;20233;-63
2022/10/30 10:19:14;;;;;;;1.93;1.83;;;;;;;17.69;60.32;95897.62;4346971;32;20192;-64
2022/10/30 10:21:49;;;;;;;6.63;1.10;;;;;;;17.69;59.81;95905.69;4331348;32;20189;-63
2022/10/30 10:24:21;;;;;;;4.63;1.30;;;;;;;17.79;58.91;95906.13;4334661;32;20460;-63
2022/10/30 10:26:55;;;;;;;0.80;0.80;;;;;;;17.87;58.81;95901.03;4338961;32;20189;-63
2022/10/30 10:29:41;;;;;;;1.17;1.07;;;;;;;18.20;56.27;95901.91;4347130;32;20208;-63
2022/10/30 10:32:31;;;;;;;0.97;0.97;;;;;;;18.37;55.80;95901.75;4348679;32;20190;-63
2022/10/30 10:35:15;;;;;;;6.57;1.27;;;;;;;18.48;54.95;95902.16;4324610;32;20200;-63
2022/10/30 10:38:02;;;;;;;4.03;0.87;;;;;;;18.52;55.99;95905.75;4357903;32;20239;-63
2022/10/30 10:40:56;;;;;;;4.37;1.73;;;;;;;18.67;55.48;95904.41;4338431;32;20193;-63
2022/10/30 10:43:34;;;;;;;3.23;0.87;;;;;;;18.83;54.14;95900.75;4322021;32;20207;-63
2022/10/30 10:46:29;;;;;;;0.97;0.87;;;;;;;18.80;55.18;95896.03;4348713;32;20193;-63
2022/10/30 10:49:12;;;;;;;2.00;1.63;;;;;;;18.84;54.37;95890.78;4338385;32;20201;-63
2022/10/30 10:51:41;;;;;;;12.73;1.47;;;;;;;18.77;55.98;95894.00;4322056;32;20205;-63
2022/10/30 10:54:48;;;;;;;3.00;1.37;;;;;;;19.16;53.48;95895.34;4305889;32;20257;-63
2022/10/30 10:57:28;;;;;;;0.83;0.83;;;;;;;19.38;52.57;95901.44;4253189;33;20198;-63
2022/10/30 11:00:01;;;;;;;1.30;1.27;;;;;;;19.47;52.34;95891.34;4267415;33;20282;-63
2022/10/30 11:02:40;;;;;;;4.10;1.33;;;;;;;19.48;52.77;95891.03;4296990;33;20191;-63
2022/10/30 11:05:27;;;;;;;1.47;1.37;;;;;;;19.68;51.76;95897.44;4265905;33;20254;-63
2022/10/30 11:08:01;;;;;;;2.40;1.20;;;;;;;19.64;51.61;95888.47;4292521;33;20199;-63
2022/10/30 11:10:28;;;;;;;1.27;1.17;;;;;;;19.69;51.36;95892.84;4281890;33;20313;-63
2022/10/30 11:12:54;;;;;;;1.60;1.50;;;;;;;19.60;51.66;95884.87;4297359;33;20221;-63
2022/10/30 11:15:40;;;;;;;5.57;2.67;;;;;;;19.54;52.38;95875.44;4264054;33;20187;-63
2022/10/30 11:18:09;;;;;;;5.30;1.57;;;;;;;19.56;52.23;95883.97;4263289;33;20199;-63
2022/10/30 11:21:07;;;;;;;6.40;1.37;;;;;;;19.55;52.49;95877.00;4276557;33;20254;-64
2022/10/30 11:23:52;;;;;;;0.70;0.70;;;;;;;19.88;52.14;95880.38;4242573;33;20351;-63
2022/10/30 11:26:21;;;;;;;4.73;2.20;;;;;;;19.94;51.94;95875.56;4318114;32;20245;-63
2022/10/30 11:28:58;;;;;;;3.20;1.23;;;;;;;20.09;51.67;95874.84;4298337;32;20209;-62
2022/10/30 11:31:39;;;;;;;11.40;1.47;;;;;;;20.18;51.33;95869.31;4327802;32;20193;-62
2022/10/30 11:34:29;;;;;;;1.43;1.33;;;;;;;20.35;50.98;95873.66;4340012;32;20201;-63
2022/10/30 11:37:28;;;;;;;1.20;1.20;;;;;;;20.27;52.22;95861.09;4179895;33;20314;-63
2022/10/30 11:40:15;;;;;;;2.23;1.40;;;;;;;20.13;52.22;95866.88;4203353;33;20193;-61
2022/10/30 11:42:49;;;;;;;0.70;0.70;;;;;;;20.17;51.91;95862.34;4288112;32;20190;-62
2022/10/30 11:45:25;;;;;;;1.63;1.53;;;;;;;20.14;51.89;95865.75;4316121;33;20233;-62